Judi M. — WCX8376 — position and weather

sailwx.info

Track history (hours):
 
Tides and Currents Weather Stations Pressure Air Temp Water Temp Dewpoint Dewpoint Depression Visibility Wind Speed Wind Dir Waves Ship Positions

Judi M.

Owner: MANKE TUG & BARGE CO INC, SHELTON, WA. More information available from US FCC via Universal Licensing System and Coast Guard Vessel Documentation Center.

Last reported at 2016-Feb-06 08:33 UTC. Time now 2016-Feb-08 02:03 UTC.
Position N 47°34' W 122°22'.

Length 29 m; draft 4 m.

Type: Tow > 200 m length. MMSI: 366740920.

Date/timePositionNaut miles runAvg speedWind from/ knotsBaromVisibWave heightAir tempDewpointWater temp
2016-Feb-06 08:33N 47°34' W 122°22'3 2.7
2016-Feb-06 07:33N 47°37' W 122°24'6 5.8
2016-Feb-06 06:33N 47°42' W 122°28'6 6.1
2016-Feb-06 05:33N 47°48' W 122°28'6 5.8
2016-Feb-06 04:33N 47°54' W 122°30'5 5.3
2016-Feb-06 03:32N 47°57' W 122°36'4 3.6
2016-Feb-06 02:33N 48°01' W 122°38'7 0.5
2016-Feb-05 12:32N 48°06' W 122°45'6 6.3
2016-Feb-05 11:33N 48°02' W 122°38'7 6.6
2016-Feb-05 10:33N 47°57' W 122°32'7 6.5
2016-Feb-05 09:33N 47°51' W 122°27'8 7.6
2016-Feb-05 08:33N 47°43' W 122°26'7 6.7
2016-Feb-05 07:33N 47°37' W 122°24'  
2016-Jan-30 07:33N 47°35' W 122°22'4 4.4
2016-Jan-30 06:34N 47°38' W 122°26'6 5.9
2016-Jan-30 05:33N 47°44' W 122°27'6 6.4
2016-Jan-30 04:33N 47°50' W 122°28'7 6.9
2016-Jan-30 03:33N 47°56' W 122°33'14 1.0
2016-Jan-29 13:33N 48°06' W 122°48'2 1.2
2016-Jan-29 12:11N 48°06' W 122°45'4 6.5
2016-Jan-29 11:31N 48°05' W 122°39'8 8.2
2016-Jan-29 10:33N 47°58' W 122°34'8 8.4
2016-Jan-29 09:33N 47°51' W 122°27'9 9.0
2016-Jan-29 08:33N 47°42' W 122°27'8 7.8
2016-Jan-29 07:33N 47°35' W 122°22'  
Track history (hours):
 
Tides and Currents Weather Stations Pressure Air Temp Water Temp Dewpoint Dewpoint Depression Visibility Wind Speed Wind Dir Waves Ship Positions

Judi M.

Owner: MANKE TUG & BARGE CO INC, SHELTON, WA. More information available from US FCC via Universal Licensing System and Coast Guard Vessel Documentation Center.

Last reported at 2016-Feb-06 08:33 UTC. Time now 2016-Feb-08 02:03 UTC.
Position N 47°34' W 122°22'.

Length 29 m; draft 4 m.

Type: Tow > 200 m length. MMSI: 366740920.

Date/timePositionNaut miles runAvg speedWind from/ knotsBaromVisibWave heightAir tempDewpointWater temp
2016-Feb-06 08:33N 47°34' W 122°22'3 2.7
2016-Feb-06 07:33N 47°37' W 122°24'6 5.8
2016-Feb-06 06:33N 47°42' W 122°28'6 6.1
2016-Feb-06 05:33N 47°48' W 122°28'6 5.8
2016-Feb-06 04:33N 47°54' W 122°30'5 5.3
2016-Feb-06 03:32N 47°57' W 122°36'4 3.6
2016-Feb-06 02:33N 48°01' W 122°38'7 0.5
2016-Feb-05 12:32N 48°06' W 122°45'6 6.3
2016-Feb-05 11:33N 48°02' W 122°38'7 6.6
2016-Feb-05 10:33N 47°57' W 122°32'7 6.5
2016-Feb-05 09:33N 47°51' W 122°27'8 7.6
2016-Feb-05 08:33N 47°43' W 122°26'7 6.7
2016-Feb-05 07:33N 47°37' W 122°24'  
2016-Jan-30 07:33N 47°35' W 122°22'4 4.4
2016-Jan-30 06:34N 47°38' W 122°26'6 5.9
2016-Jan-30 05:33N 47°44' W 122°27'6 6.4
2016-Jan-30 04:33N 47°50' W 122°28'7 6.9
2016-Jan-30 03:33N 47°56' W 122°33'14 1.0
2016-Jan-29 13:33N 48°06' W 122°48'2 1.2
2016-Jan-29 12:11N 48°06' W 122°45'4 6.5
2016-Jan-29 11:31N 48°05' W 122°39'8 8.2
2016-Jan-29 10:33N 47°58' W 122°34'8 8.4
2016-Jan-29 09:33N 47°51' W 122°27'9 9.0
2016-Jan-29 08:33N 47°42' W 122°27'8 7.8
2016-Jan-29 07:33N 47°35' W 122°22'  

Dump ship's entire track history